Time;durP1;ratioP1;P1;durP2;ratioP2;P2;SDS_P1;SDS_P2;PMS_P1;PMS_P2;Temp;Humidity;BMP_temperature;BMP_pressure;BME280_temperature;BME280_humidity;BME280_pressure;Samples;Min_cycle;Max_cycle;Signal;HPM_P1;HPM_P2
2021/11/02 00:01:47;;;;;;;7.83;6.60;;;;;;;;;;5052016;28;20215;-74
2021/11/02 00:04:14;;;;;;;9.60;7.70;;;;;;;;;;5054211;28;20876;-74
2021/11/02 00:06:40;;;;;;;8.40;6.93;;;;;;;;;;5051534;28;20237;-73
2021/11/02 00:09:06;;;;;;;8.83;7.63;;;;;;;;;;5052297;28;20295;-74
2021/11/02 00:11:34;;;;;;;8.93;7.50;;;;;;;;;;5053170;28;20217;-74
2021/11/02 00:14:06;;;;;;;7.70;7.00;;;;;;;;;;5054390;28;20745;-74
2021/11/02 00:16:35;;;;;;;8.97;8.07;;;;;;;;;;5051473;28;20914;-74
2021/11/02 00:19:03;;;;;;;8.20;7.30;;;;;;;;;;5051837;28;20236;-74
2021/11/02 00:21:33;;;;;;;10.90;7.93;;;;;;;;;;5053596;28;20220;-74
2021/11/02 00:24:09;;;;;;;9.10;7.60;;;;;;;;;;5053990;28;20230;-74
2021/11/02 00:26:35;;;;;;;8.93;8.03;;;;;;;;;;5051915;28;20281;-74
2021/11/02 00:29:01;;;;;;;12.20;9.03;;;;;;;;;;5053710;28;20629;-74
2021/11/02 00:31:28;;;;;;;10.17;8.87;;;;;;;;;;5053854;28;20218;-74
2021/11/02 00:33:56;;;;;;;8.93;8.03;;;;;;;;;;5053452;28;20257;-74
2021/11/02 00:36:22;;;;;;;11.37;9.00;;;;;;;;;;5053910;28;20250;-74
2021/11/02 00:38:49;;;;;;;11.60;9.17;;;;;;;;;;5050952;28;20834;-74
2021/11/02 00:41:15;;;;;;;10.97;9.87;;;;;;;;;;5053356;28;20226;-74
2021/11/02 00:43:43;;;;;;;11.37;9.13;;;;;;;;;;5055026;28;20213;-74
2021/11/02 00:46:13;;;;;;;9.93;8.93;;;;;;;;;;5053233;28;20221;-74
2021/11/02 00:48:39;;;;;;;11.97;9.87;;;;;;;;;;5054453;28;20313;-73
2021/11/02 00:51:07;;;;;;;14.00;10.67;;;;;;;;;;5056024;28;20214;-74
2021/11/02 00:53:34;;;;;;;11.13;9.30;;;;;;;;;;5052832;28;20226;-74
2021/11/02 00:56:00;;;;;;;11.90;10.50;;;;;;;;;;5056812;28;20210;-74
2021/11/02 00:58:27;;;;;;;12.33;11.03;;;;;;;;;;5058756;28;20218;-74
2021/11/02 01:00:53;;;;;;;11.47;9.53;;;;;;;;;;5057074;28;20210;-76
2021/11/02 01:03:20;;;;;;;12.43;11.10;;;;;;;;;;5057068;28;20234;-74
2021/11/02 01:05:47;;;;;;;12.07;10.90;;;;;;;;;;5059035;28;20261;-74
2021/11/02 01:08:15;;;;;;;13.03;11.60;;;;;;;;;;5058077;28;20349;-74
2021/11/02 01:10:47;;;;;;;11.77;10.23;;;;;;;;;;5056107;28;20225;-74
2021/11/02 01:13:13;;;;;;;12.43;11.23;;;;;;;;;;5058285;28;20309;-74
2021/11/02 01:15:40;;;;;;;12.17;10.93;;;;;;;;;;5058716;28;20536;-74
2021/11/02 01:18:06;;;;;;;12.10;10.90;;;;;;;;;;5059632;28;20272;-74
2021/11/02 01:20:33;;;;;;;12.97;11.60;;;;;;;;;;5057400;28;20886;-74
2021/11/02 01:23:03;;;;;;;13.00;11.53;;;;;;;;;;5059154;28;20222;-74
2021/11/02 01:25:31;;;;;;;14.60;11.50;;;;;;;;;;5058516;28;20674;-74
2021/11/02 01:27:59;;;;;;;15.73;12.13;;;;;;;;;;5058228;28;20238;-74
2021/11/02 01:30:27;;;;;;;13.57;11.87;;;;;;;;;;5059308;28;20257;-74
2021/11/02 01:32:54;;;;;;;13.70;12.27;;;;;;;;;;5056280;28;20214;-74
2021/11/02 01:35:20;;;;;;;13.90;12.40;;;;;;;;;;5058168;28;20222;-74
2021/11/02 01:37:47;;;;;;;16.80;12.80;;;;;;;;;;5055811;28;20259;-74
2021/11/02 01:40:17;;;;;;;11.67;10.37;;;;;;;;;;5056444;28;20226;-74
2021/11/02 01:42:46;;;;;;;13.33;12.03;;;;;;;;;;5055155;28;20360;-74
2021/11/02 01:45:14;;;;;;;13.90;12.40;;;;;;;;;;5057635;28;20587;-74
2021/11/02 01:47:43;;;;;;;15.03;13.47;;;;;;;;;;5055128;28;20216;-74
2021/11/02 01:50:11;;;;;;;12.37;11.07;;;;;;;;;;5053951;28;20238;-74
2021/11/02 01:52:38;;;;;;;12.30;11.00;;;;;;;;;;5057392;28;20222;-74
2021/11/02 01:55:06;;;;;;;16.77;12.83;;;;;;;;;;5056490;28;20755;-74
2021/11/02 01:57:32;;;;;;;13.97;12.37;;;;;;;;;;5055333;28;20222;-73
2021/11/02 02:00:00;;;;;;;13.77;11.13;;;;;;;;;;5054202;28;20264;-74
2021/11/02 02:02:33;;;;;;;15.20;12.50;;;;;;;;;;5055012;28;20207;-74
2021/11/02 02:05:06;;;;;;;14.20;12.80;;;;;;;;;;5054858;28;20234;-74
2021/11/02 02:07:38;;;;;;;15.83;13.03;;;;;;;;;;5053541;28;20235;-73
2021/11/02 02:10:09;;;;;;;16.07;13.13;;;;;;;;;;5053772;28;20266;-74
2021/11/02 02:12:50;;;;;;;14.17;12.43;;;;;;;;;;5055848;28;20260;-74
2021/11/02 02:15:22;;;;;;;15.00;13.50;;;;;;;;;;5055188;28;20776;-74
2021/11/02 02:17:54;;;;;;;14.20;12.80;;;;;;;;;;5055398;28;20210;-74
2021/11/02 02:20:32;;;;;;;13.03;11.77;;;;;;;;;;5054302;28;20230;-73
2021/11/02 02:23:16;;;;;;;16.27;12.10;;;;;;;;;;5054949;28;20652;-74
2021/11/02 02:25:52;;;;;;;14.27;12.73;;;;;;;;;;5056002;28;20214;-73
2021/11/02 02:28:23;;;;;;;16.23;12.77;;;;;;;;;;5056029;28;20214;-73
2021/11/02 02:30:54;;;;;;;14.70;13.17;;;;;;;;;;5054168;28;21108;-73
2021/11/02 02:33:23;;;;;;;15.83;12.87;;;;;;;;;;5053960;28;20672;-74
2021/11/02 02:35:50;;;;;;;15.87;14.27;;;;;;;;;;5057276;28;20214;-73
2021/11/02 02:38:20;;;;;;;18.53;14.77;;;;;;;;;;5053804;28;20234;-73
2021/11/02 02:40:47;;;;;;;16.60;14.47;;;;;;;;;;5054065;28;20211;-74
2021/11/02 02:43:15;;;;;;;14.77;13.13;;;;;;;;;;5053046;28;20231;-74
2021/11/02 02:45:44;;;;;;;16.77;15.17;;;;;;;;;;5054892;28;20215;-74
2021/11/02 02:48:14;;;;;;;17.70;15.83;;;;;;;;;;5053852;28;20263;-74
2021/11/02 02:50:41;;;;;;;16.87;15.17;;;;;;;;;;5055607;28;20587;-74
2021/11/02 02:53:09;;;;;;;21.90;15.23;;;;;;;;;;5055711;28;21249;-74
2021/11/02 02:55:36;;;;;;;15.23;13.60;;;;;;;;;;5054826;28;20252;-74
2021/11/02 02:58:03;;;;;;;19.87;16.30;;;;;;;;;;5054649;28;20262;-74
2021/11/02 03:00:31;;;;;;;19.20;16.33;;;;;;;;;;5052336;28;21220;-74
2021/11/02 03:03:01;;;;;;;17.83;14.87;;;;;;;;;;5053842;28;20946;-74
2021/11/02 03:05:29;;;;;;;16.60;14.67;;;;;;;;;;5054866;28;20238;-74
2021/11/02 03:07:56;;;;;;;19.77;15.77;;;;;;;;;;5053169;28;20227;-74
2021/11/02 03:10:23;;;;;;;18.90;14.97;;;;;;;;;;5053945;28;20592;-74
2021/11/02 03:12:51;;;;;;;21.90;16.40;;;;;;;;;;5057276;28;20263;-74
2021/11/02 03:18:25;;;;;;;19.90;16.77;;;;;;;;;;5047074;28;20355;-74
2021/11/02 03:51:42;;;;;;;21.13;18.13;;;;;;;;;;5049834;28;20287;-74
2021/11/02 03:54:34;;;;;;;21.83;18.30;;;;;;;;;;5054469;28;20222;-74
2021/11/02 03:57:09;;;;;;;20.00;15.63;;;;;;;;;;5054273;28;20287;-73
2021/11/02 04:28:01;;;;;;;25.23;16.53;;;;;;;;;;5030871;28;20704;-74
2021/11/02 04:30:52;;;;;;;24.30;18.80;;;;;;;;;;5056555;28;20222;-74
2021/11/02 05:06:37;;;;;;;25.93;16.93;;;;;;;;;;5056233;28;20700;-73
2021/11/02 05:10:08;;;;;;;26.17;17.03;;;;;;;;;;5056293;28;20245;-74
2021/11/02 05:12:59;;;;;;;27.30;18.07;;;;;;;;;;5056190;28;20211;-74
2021/11/02 05:48:52;;;;;;;29.77;19.10;;;;;;;;;;5056071;28;20415;-77
2021/11/02 05:56:50;;;;;;;30.00;17.93;;;;;;;;;;5057516;28;20255;-77
2021/11/02 06:02:07;;;;;;;27.07;18.27;;;;;;;;;;5054480;28;20668;-77
2021/11/02 06:04:51;;;;;;;31.57;19.10;;;;;;;;;;5055368;28;20246;-77
2021/11/02 06:10:45;;;;;;;29.10;19.03;;;;;;;;;;5050878;28;20272;-77
2021/11/02 06:30:02;;;;;;;31.30;19.73;;;;;;;;;;5057853;28;20240;-79
2021/11/02 06:32:31;;;;;;;28.97;19.40;;;;;;;;;;5061283;28;20240;-80
2021/11/02 06:35:08;;;;;;;26.60;20.00;;;;;;;;;;5059467;28;20224;-77
2021/11/02 06:37:48;;;;;;;28.83;19.43;;;;;;;;;;5057338;28;20228;-77
2021/11/02 06:43:16;;;;;;;28.10;20.33;;;;;;;;;;5053593;28;20209;-79
2021/11/02 06:48:54;;;;;;;28.67;20.20;;;;;;;;;;5018467;28;20218;-77
2021/11/02 06:51:51;;;;;;;29.00;20.13;;;;;;;;;;5056192;28;20230;-77
2021/11/02 06:54:37;;;;;;;28.50;20.07;;;;;;;;;;5057921;28;20227;-77
2021/11/02 06:57:19;;;;;;;31.20;21.27;;;;;;;;;;5056163;28;20214;-77
2021/11/02 07:00:20;;;;;;;26.40;20.07;;;;;;;;;;5056356;28;20214;-78
2021/11/02 07:17:06;;;;;;;28.80;20.27;;;;;;;;;;5053384;28;20230;-77
2021/11/02 07:19:36;;;;;;;28.17;20.17;;;;;;;;;;5055561;28;20230;-77
2021/11/02 07:22:16;;;;;;;26.60;19.77;;;;;;;;;;5057019;28;20294;-78
2021/11/02 07:24:50;;;;;;;28.83;19.83;;;;;;;;;;5056025;28;20391;-77
2021/11/02 07:27:36;;;;;;;28.67;20.43;;;;;;;;;;5054816;28;20240;-77
2021/11/02 08:45:27;;;;;;;17.13;15.00;;;;;;;;;;5051899;28;20220;-77
2021/11/02 08:47:57;;;;;;;18.77;15.13;;;;;;;;;;5052015;28;20201;-77
2021/11/02 08:50:25;;;;;;;14.57;13.07;;;;;;;;;;5051032;28;20241;-77
2021/11/02 08:52:54;;;;;;;18.07;14.43;;;;;;;;;;5052164;28;20302;-77
2021/11/02 08:55:21;;;;;;;16.47;14.40;;;;;;;;;;5053857;28;20321;-77
2021/11/02 08:57:48;;;;;;;19.93;14.53;;;;;;;;;;5051099;28;20466;-77
2021/11/02 09:00:16;;;;;;;16.03;14.23;;;;;;;;;;5049766;28;20215;-77
2021/11/02 09:02:48;;;;;;;19.23;13.00;;;;;;;;;;5059166;28;20240;-79
2021/11/02 09:05:21;;;;;;;15.47;12.47;;;;;;;;;;5068805;28;20293;-79
2021/11/02 09:07:50;;;;;;;14.73;13.23;;;;;;;;;;5057211;28;20226;-77
2021/11/02 09:10:18;;;;;;;17.23;15.10;;;;;;;;;;5058148;28;20238;-77
2021/11/02 09:12:46;;;;;;;14.73;12.90;;;;;;;;;;5056324;28;20244;-78
2021/11/02 09:15:14;;;;;;;16.50;13.90;;;;;;;;;;5054306;28;20641;-77
2021/11/02 09:17:44;;;;;;;17.93;13.50;;;;;;;;;;5056973;28;20207;-77
2021/11/02 09:20:12;;;;;;;18.80;14.10;;;;;;;;;;5060993;28;20223;-77
2021/11/02 09:22:38;;;;;;;17.90;13.23;;;;;;;;;;5057915;28;20245;-77
2021/11/02 09:25:07;;;;;;;14.57;12.93;;;;;;;;;;5058978;28;20227;-77
2021/11/02 09:27:34;;;;;;;18.47;14.97;;;;;;;;;;5059066;28;20532;-77
2021/11/02 09:30:02;;;;;;;19.87;15.07;;;;;;;;;;5069171;28;20234;-79
2021/11/02 09:32:29;;;;;;;19.73;15.97;;;;;;;;;;5070526;28;20204;-77
2021/11/02 09:34:56;;;;;;;18.47;15.80;;;;;;;;;;5059989;28;20214;-77
2021/11/02 09:37:31;;;;;;;18.00;16.00;;;;;;;;;;5056956;28;20226;-77
2021/11/02 09:40:08;;;;;;;21.70;17.07;;;;;;;;;;5058540;28;20227;-77
2021/11/02 09:43:24;;;;;;;19.37;16.53;;;;;;;;;;5054601;28;20222;-77
2021/11/02 09:46:12;;;;;;;18.27;16.43;;;;;;;;;;5055977;28;20235;-77
2021/11/02 09:49:03;;;;;;;18.00;15.77;;;;;;;;;;5054666;28;20340;-77
2021/11/02 09:51:59;;;;;;;17.33;14.10;;;;;;;;;;5054828;28;20594;-77
2021/11/02 09:55:05;;;;;;;16.37;14.20;;;;;;;;;;5054742;28;20235;-77
2021/11/02 09:57:56;;;;;;;17.60;14.40;;;;;;;;;;5054860;28;20665;-77
2021/11/02 10:00:50;;;;;;;19.00;15.80;;;;;;;;;;5054465;28;20680;-77
2021/11/02 10:03:59;;;;;;;20.27;15.67;;;;;;;;;;5055087;28;20297;-78
2021/11/02 10:06:37;;;;;;;19.53;15.30;;;;;;;;;;5057000;28;20661;-78
2021/11/02 10:09:08;;;;;;;18.50;16.07;;;;;;;;;;5054796;28;20851;-77
2021/11/02 10:11:41;;;;;;;21.00;15.83;;;;;;;;;;5058839;28;20241;-78
2021/11/02 10:14:28;;;;;;;20.00;14.80;;;;;;;;;;5060763;28;20203;-78
2021/11/02 10:17:25;;;;;;;19.17;15.43;;;;;;;;;;5055775;28;20215;-77
2021/11/02 10:20:05;;;;;;;20.67;16.53;;;;;;;;;;5054084;28;20230;-77
2021/11/02 10:22:57;;;;;;;20.07;16.10;;;;;;;;;;5056203;28;20217;-77
2021/11/02 10:26:00;;;;;;;21.37;15.80;;;;;;;;;;5056686;28;20238;-77
2021/11/02 10:28:47;;;;;;;19.13;16.83;;;;;;;;;;5056050;28;20225;-77
2021/11/02 10:31:25;;;;;;;22.03;18.30;;;;;;;;;;5053716;28;20293;-78
2021/11/02 10:33:59;;;;;;;18.47;16.10;;;;;;;;;;5053862;28;20321;-77
2021/11/02 10:36:35;;;;;;;18.47;16.47;;;;;;;;;;5054125;28;20751;-77
2021/11/02 10:39:12;;;;;;;21.50;16.90;;;;;;;;;;5052519;28;20232;-76
2021/11/02 10:41:50;;;;;;;23.23;16.87;;;;;;;;;;5053757;28;20772;-76
2021/11/02 10:44:20;;;;;;;18.53;16.07;;;;;;;;;;5058291;28;20235;-78
2021/11/02 10:46:59;;;;;;;23.80;16.67;;;;;;;;;;5070840;28;20210;-78
2021/11/02 10:49:34;;;;;;;20.17;16.90;;;;;;;;;;5070964;28;20286;-78
2021/11/02 10:52:04;;;;;;;22.23;18.07;;;;;;;;;;5067427;28;20599;-79
2021/11/02 10:54:50;;;;;;;20.80;17.53;;;;;;;;;;5053914;28;20227;-76
2021/11/02 10:57:33;;;;;;;20.53;17.47;;;;;;;;;;5052882;28;20219;-76
2021/11/02 11:00:04;;;;;;;24.87;17.27;;;;;;;;;;5052321;28;20546;-77
2021/11/02 11:02:31;;;;;;;21.13;17.07;;;;;;;;;;5053585;28;20226;-76
2021/11/02 11:05:01;;;;;;;21.13;18.00;;;;;;;;;;5052213;28;20230;-76
2021/11/02 11:07:28;;;;;;;22.53;18.70;;;;;;;;;;5051775;28;20270;-76
2021/11/02 11:09:55;;;;;;;22.87;17.50;;;;;;;;;;5052194;28;20336;-76
2021/11/02 11:12:22;;;;;;;21.37;18.73;;;;;;;;;;5052809;28;20756;-77
2021/11/02 11:14:53;;;;;;;25.53;19.03;;;;;;;;;;5051512;28;20563;-76
2021/11/02 11:17:27;;;;;;;22.03;17.33;;;;;;;;;;5052745;28;20280;-77
2021/11/02 11:20:12;;;;;;;26.03;18.83;;;;;;;;;;5052553;28;20234;-76
2021/11/02 11:22:42;;;;;;;21.43;18.13;;;;;;;;;;5050619;28;20226;-76
2021/11/02 11:25:11;;;;;;;20.23;16.27;;;;;;;;;;5051848;28;20231;-76
2021/11/02 11:27:46;;;;;;;19.63;16.83;;;;;;;;;;5053003;28;20612;-77
2021/11/02 11:30:13;;;;;;;21.53;17.63;;;;;;;;;;5050524;28;20216;-76
2021/11/02 11:32:41;;;;;;;21.80;18.27;;;;;;;;;;5052125;28;20228;-76
2021/11/02 11:35:09;;;;;;;22.63;17.93;;;;;;;;;;5051755;28;20234;-76
2021/11/02 11:37:38;;;;;;;21.30;19.10;;;;;;;;;;5051355;28;20219;-76
2021/11/02 11:40:09;;;;;;;21.27;17.37;;;;;;;;;;5052980;28;20239;-76
2021/11/02 11:42:37;;;;;;;19.53;16.47;;;;;;;;;;5051664;28;20211;-76
2021/11/02 11:45:08;;;;;;;19.13;17.13;;;;;;;;;;5051380;28;20533;-76
2021/11/02 11:47:35;;;;;;;16.47;14.73;;;;;;;;;;5051477;28;20616;-76
2021/11/02 11:50:14;;;;;;;16.67;14.97;;;;;;;;;;5050364;28;20648;-76
2021/11/02 11:52:45;;;;;;;16.30;13.40;;;;;;;;;;5053293;28;20239;-77
2021/11/02 11:55:18;;;;;;;15.27;13.67;;;;;;;;;;5051004;28;20224;-77
2021/11/02 11:57:45;;;;;;;17.93;14.57;;;;;;;;;;5051284;28;20274;-77
2021/11/02 12:00:19;;;;;;;15.07;13.50;;;;;;;;;;5051257;28;20211;-77
2021/11/02 12:02:54;;;;;;;16.47;14.70;;;;;;;;;;5052220;28;20204;-77
2021/11/02 12:05:22;;;;;;;16.07;13.80;;;;;;;;;;5051675;28;20232;-77
2021/11/02 12:08:04;;;;;;;17.30;13.43;;;;;;;;;;5052134;28;20212;-76
2021/11/02 12:10:33;;;;;;;15.23;13.47;;;;;;;;;;5053051;28;20744;-77
2021/11/02 12:13:03;;;;;;;19.17;13.83;;;;;;;;;;5051533;28;20386;-77
2021/11/02 12:15:58;;;;;;;15.27;13.67;;;;;;;;;;5049642;28;20564;-77
2021/11/02 12:18:28;;;;;;;15.37;13.67;;;;;;;;;;5051640;28;20212;-77
2021/11/02 12:20:55;;;;;;;14.40;12.67;;;;;;;;;;5051263;28;20216;-77
2021/11/02 12:23:37;;;;;;;17.73;12.90;;;;;;;;;;5050980;28;20640;-77
2021/11/02 12:26:06;;;;;;;16.40;11.40;;;;;;;;;;5051542;28;20241;-77
2021/11/02 12:28:35;;;;;;;19.37;12.47;;;;;;;;;;5050591;28;20307;-77
2021/11/02 12:31:04;;;;;;;13.57;12.03;;;;;;;;;;5050783;28;20238;-77
2021/11/02 12:33:31;;;;;;;15.30;11.70;;;;;;;;;;5049315;28;20219;-77
2021/11/02 12:36:02;;;;;;;12.60;11.30;;;;;;;;;;5051958;28;20579;-77
2021/11/02 12:38:34;;;;;;;12.57;11.00;;;;;;;;;;5051784;28;20589;-77
2021/11/02 12:41:02;;;;;;;13.37;11.97;;;;;;;;;;5051836;28;20227;-77
2021/11/02 12:43:31;;;;;;;13.77;12.33;;;;;;;;;;5049829;28;20264;-77
2021/11/02 12:46:00;;;;;;;12.20;11.00;;;;;;;;;;5052685;28;20216;-77
2021/11/02 12:48:27;;;;;;;13.07;11.80;;;;;;;;;;5050089;28;20208;-77
2021/11/02 12:50:55;;;;;;;12.47;11.30;;;;;;;;;;5054442;28;20224;-77
2021/11/02 12:53:22;;;;;;;12.57;11.03;;;;;;;;;;5056334;28;20262;-77
2021/11/02 12:55:48;;;;;;;13.30;11.63;;;;;;;;;;5054350;28;20227;-77
2021/11/02 12:58:18;;;;;;;12.67;11.37;;;;;;;;;;5058492;28;20214;-77
2021/11/02 13:00:51;;;;;;;12.30;11.17;;;;;;;;;;5055957;28;20216;-77
2021/11/02 13:03:25;;;;;;;12.30;11.03;;;;;;;;;;5054814;28;20689;-77
2021/11/02 13:05:57;;;;;;;11.20;10.13;;;;;;;;;;5056199;28;20232;-77
2021/11/02 13:08:36;;;;;;;10.73;9.20;;;;;;;;;;5054989;28;20318;-77
2021/11/02 13:11:06;;;;;;;10.77;9.80;;;;;;;;;;5053302;28;20224;-77
2021/11/02 13:13:41;;;;;;;10.63;9.47;;;;;;;;;;5056044;28;20683;-77
2021/11/02 13:16:11;;;;;;;10.23;9.23;;;;;;;;;;5055289;28;20667;-77
2021/11/02 13:18:39;;;;;;;10.27;8.83;;;;;;;;;;5054067;28;20311;-77
2021/11/02 13:21:22;;;;;;;9.30;8.50;;;;;;;;;;5055921;28;20245;-76
2021/11/02 13:23:53;;;;;;;8.93;8.13;;;;;;;;;;5054483;28;20811;-77
2021/11/02 13:26:21;;;;;;;10.67;8.73;;;;;;;;;;5054183;28;20229;-77
2021/11/02 13:28:48;;;;;;;9.20;8.40;;;;;;;;;;5056155;28;20202;-77
2021/11/02 13:31:27;;;;;;;9.37;8.47;;;;;;;;;;5054228;28;20216;-77
2021/11/02 13:34:00;;;;;;;10.13;9.17;;;;;;;;;;5050317;28;20225;-77
2021/11/02 13:36:26;;;;;;;10.00;9.00;;;;;;;;;;5055568;28;20217;-77
2021/11/02 13:38:59;;;;;;;10.53;9.53;;;;;;;;;;5055141;28;20237;-77
2021/11/02 13:41:27;;;;;;;10.27;9.27;;;;;;;;;;5053214;28;20193;-77
2021/11/02 13:43:56;;;;;;;9.70;8.60;;;;;;;;;;5054325;28;20263;-77
2021/11/02 13:46:26;;;;;;;10.23;9.13;;;;;;;;;;5053769;28;20212;-77
2021/11/02 13:48:54;;;;;;;10.83;9.73;;;;;;;;;;5054081;28;20711;-77
2021/11/02 13:51:24;;;;;;;10.57;9.67;;;;;;;;;;5053574;28;20840;-77
2021/11/02 13:53:51;;;;;;;10.03;9.13;;;;;;;;;;5056891;28;20239;-77
2021/11/02 13:56:20;;;;;;;11.00;9.93;;;;;;;;;;5055376;28;20801;-77
2021/11/02 13:58:47;;;;;;;10.27;9.33;;;;;;;;;;5055179;28;20221;-77
2021/11/02 14:01:20;;;;;;;12.37;9.83;;;;;;;;;;5053145;28;20932;-76
2021/11/02 14:03:52;;;;;;;10.83;9.77;;;;;;;;;;5055907;28;20232;-76
2021/11/02 14:06:20;;;;;;;11.00;9.90;;;;;;;;;;5053396;28;20611;-77
2021/11/02 14:08:48;;;;;;;11.80;10.60;;;;;;;;;;5052857;28;20237;-77
2021/11/02 14:11:21;;;;;;;10.87;9.73;;;;;;;;;;5054040;28;20659;-77
2021/11/02 14:13:49;;;;;;;14.03;10.27;;;;;;;;;;5052993;28;20222;-77
2021/11/02 14:16:16;;;;;;;13.23;10.80;;;;;;;;;;5054471;28;20209;-76
2021/11/02 14:18:43;;;;;;;12.40;11.10;;;;;;;;;;5053023;28;20232;-77
2021/11/02 14:21:12;;;;;;;13.77;11.37;;;;;;;;;;5054516;28;20319;-77
2021/11/02 14:23:41;;;;;;;12.87;11.57;;;;;;;;;;5053120;28;20249;-77
2021/11/02 14:26:21;;;;;;;13.30;12.03;;;;;;;;;;5051903;28;20229;-77
2021/11/02 14:28:50;;;;;;;17.47;11.40;;;;;;;;;;5053384;28;20215;-77
2021/11/02 14:31:49;;;;;;;19.70;12.47;;;;;;;;;;5053456;28;20214;-77
2021/11/02 14:34:47;;;;;;;14.17;11.00;;;;;;;;;;5053815;28;20237;-77
2021/11/02 14:37:16;;;;;;;15.70;11.33;;;;;;;;;;5051767;28;20230;-77
2021/11/02 14:40:01;;;;;;;11.93;10.57;;;;;;;;;;5055168;28;20231;-77
2021/11/02 14:42:47;;;;;;;12.73;11.53;;;;;;;;;;5054570;28;20210;-77
2021/11/02 14:45:16;;;;;;;14.97;10.50;;;;;;;;;;5052681;28;20217;-77
2021/11/02 14:47:44;;;;;;;11.80;10.70;;;;;;;;;;5055908;28;20643;-77
2021/11/02 14:50:47;;;;;;;12.63;11.43;;;;;;;;;;5054261;28;20230;-77
2021/11/02 14:53:18;;;;;;;16.67;11.50;;;;;;;;;;4990306;28;20238;-77
2021/11/02 14:55:53;;;;;;;17.47;11.80;;;;;;;;;;5043880;28;20227;-77
2021/11/02 14:58:49;;;;;;;20.43;12.17;;;;;;;;;;5052728;28;20220;-77
2021/11/02 15:01:19;;;;;;;16.20;12.43;;;;;;;;;;5052932;28;20223;-77
2021/11/02 15:03:52;;;;;;;23.37;13.13;;;;;;;;;;5052514;28;20230;-77
2021/11/02 15:06:20;;;;;;;20.57;12.60;;;;;;;;;;5052232;28;20233;-78
2021/11/02 15:08:50;;;;;;;18.43;11.93;;;;;;;;;;5050116;28;20265;-77
2021/11/02 15:11:19;;;;;;;21.03;12.70;;;;;;;;;;5050803;28;20221;-77
2021/11/02 15:13:48;;;;;;;15.97;11.83;;;;;;;;;;5053629;28;20233;-77
2021/11/02 15:16:14;;;;;;;12.47;11.17;;;;;;;;;;5058997;28;20227;-78
2021/11/02 15:18:44;;;;;;;15.67;11.47;;;;;;;;;;5057033;28;20279;-78
2021/11/02 15:21:11;;;;;;;14.87;11.90;;;;;;;;;;5057684;28;20300;-77
2021/11/02 15:23:43;;;;;;;37.57;15.57;;;;;;;;;;5055007;28;20231;-78
2021/11/02 15:26:12;;;;;;;64.20;18.33;;;;;;;;;;5058979;28;20217;-78
2021/11/02 15:28:45;;;;;;;48.27;20.00;;;;;;;;;;5061676;28;20204;-79
2021/11/02 15:31:12;;;;;;;30.40;18.90;;;;;;;;;;5061995;28;20308;-78
2021/11/02 15:33:42;;;;;;;25.10;16.73;;;;;;;;;;5061815;28;20268;-78
2021/11/02 15:36:11;;;;;;;25.20;16.70;;;;;;;;;;5060857;28;20273;-78
2021/11/02 15:38:38;;;;;;;25.07;18.03;;;;;;;;;;5062773;28;20225;-78
2021/11/02 15:41:20;;;;;;;23.30;16.97;;;;;;;;;;5062316;28;20208;-78
2021/11/02 15:43:53;;;;;;;19.50;15.63;;;;;;;;;;5061327;28;20301;-79
2021/11/02 15:46:24;;;;;;;21.40;17.27;;;;;;;;;;5059611;28;20211;-79
2021/11/02 15:48:53;;;;;;;20.23;16.73;;;;;;;;;;5062291;28;20255;-79
2021/11/02 15:51:19;;;;;;;19.47;17.33;;;;;;;;;;5062645;28;20194;-79
2021/11/02 15:53:46;;;;;;;23.30;20.73;;;;;;;;;;5064373;28;20512;-79
2021/11/02 15:56:12;;;;;;;19.63;17.73;;;;;;;;;;5061377;28;20725;-79
2021/11/02 15:58:40;;;;;;;20.43;17.93;;;;;;;;;;5057254;28;20213;-79
2021/11/02 16:01:06;;;;;;;22.87;17.73;;;;;;;;;;5056842;28;20213;-79
2021/11/02 16:03:34;;;;;;;21.40;19.20;;;;;;;;;;5055673;28;20213;-79
2021/11/02 16:06:03;;;;;;;22.17;19.80;;;;;;;;;;5058797;28;20257;-79
2021/11/02 16:08:30;;;;;;;23.97;20.27;;;;;;;;;;5056714;28;20233;-79
2021/11/02 16:11:05;;;;;;;25.77;19.70;;;;;;;;;;5055578;28;20217;-79
2021/11/02 16:13:32;;;;;;;22.53;19.50;;;;;;;;;;5055780;28;20228;-79
2021/11/02 16:16:01;;;;;;;23.67;18.80;;;;;;;;;;5059753;28;20217;-78
2021/11/02 16:18:32;;;;;;;23.03;18.80;;;;;;;;;;5064384;28;20267;-78
2021/11/02 16:20:59;;;;;;;26.23;20.03;;;;;;;;;;5067399;28;20246;-79
2021/11/02 16:23:37;;;;;;;24.23;19.27;;;;;;;;;;5065608;28;20237;-79
2021/11/02 16:26:13;;;;;;;24.40;18.47;;;;;;;;;;5068512;28;20267;-78
2021/11/02 16:28:40;;;;;;;22.13;18.90;;;;;;;;;;5069780;28;20207;-79
2021/11/02 16:31:10;;;;;;;20.73;16.90;;;;;;;;;;5063456;28;20229;-79
2021/11/02 16:33:38;;;;;;;19.83;16.80;;;;;;;;;;5063392;28;20224;-79
2021/11/02 16:36:17;;;;;;;21.40;16.53;;;;;;;;;;5063824;28;20197;-79
2021/11/02 16:38:44;;;;;;;17.87;15.77;;;;;;;;;;5064026;28;20236;-79
2021/11/02 16:41:20;;;;;;;17.40;13.40;;;;;;;;;;5064390;28;20236;-79
2021/11/02 16:43:49;;;;;;;14.77;13.10;;;;;;;;;;5065297;28;20216;-78
2021/11/02 16:46:24;;;;;;;15.30;13.77;;;;;;;;;;5065549;28;20224;-78
2021/11/02 16:49:02;;;;;;;14.00;12.50;;;;;;;;;;5064078;28;20576;-78
2021/11/02 16:51:46;;;;;;;12.37;11.20;;;;;;;;;;5060853;28;20229;-78
2021/11/02 16:54:14;;;;;;;12.50;11.20;;;;;;;;;;5061973;28;20226;-78
2021/11/02 16:57:07;;;;;;;15.73;13.37;;;;;;;;;;5066536;28;20210;-78
2021/11/02 16:59:53;;;;;;;13.97;12.57;;;;;;;;;;5064998;28;20210;-78
2021/11/02 17:02:22;;;;;;;13.90;12.50;;;;;;;;;;5068216;28;20229;-78
2021/11/02 17:05:02;;;;;;;13.37;12.07;;;;;;;;;;5066377;28;20232;-78
2021/11/02 17:07:40;;;;;;;13.77;12.23;;;;;;;;;;5066644;28;20209;-78
2021/11/02 17:10:34;;;;;;;15.00;13.40;;;;;;;;;;5065822;28;20254;-78
2021/11/02 17:13:04;;;;;;;14.67;13.13;;;;;;;;;;5045706;28;20231;-78
2021/11/02 17:15:34;;;;;;;16.37;14.67;;;;;;;;;;5066482;28;20212;-78
2021/11/02 17:18:03;;;;;;;15.60;13.73;;;;;;;;;;5064012;28;20216;-78
2021/11/02 17:20:30;;;;;;;18.13;14.20;;;;;;;;;;5062918;28;20705;-78
2021/11/02 17:22:56;;;;;;;17.67;14.77;;;;;;;;;;5059148;28;20266;-78
2021/11/02 17:25:24;;;;;;;18.93;15.43;;;;;;;;;;5058538;28;20207;-77
2021/11/02 17:27:53;;;;;;;18.97;16.67;;;;;;;;;;5058869;28;20610;-78
2021/11/02 17:30:21;;;;;;;17.43;15.63;;;;;;;;;;5057990;28;20656;-77
2021/11/02 17:32:48;;;;;;;18.73;16.83;;;;;;;;;;5056337;28;20237;-78
2021/11/02 17:35:18;;;;;;;17.77;15.43;;;;;;;;;;5057042;28;20281;-77
2021/11/02 17:37:46;;;;;;;18.10;15.73;;;;;;;;;;5054602;28;20215;-77
2021/11/02 17:40:17;;;;;;;20.57;16.43;;;;;;;;;;5054700;28;20425;-77
2021/11/02 17:42:44;;;;;;;18.60;14.73;;;;;;;;;;5055267;28;20251;-77
2021/11/02 17:45:13;;;;;;;20.27;15.13;;;;;;;;;;5054673;28;20273;-77
2021/11/02 17:47:40;;;;;;;22.03;16.43;;;;;;;;;;5056541;28;20293;-77
2021/11/02 17:50:08;;;;;;;20.87;17.20;;;;;;;;;;5057317;28;20280;-78
2021/11/02 17:52:37;;;;;;;20.63;16.37;;;;;;;;;;5062476;28;20234;-78
2021/11/02 17:55:06;;;;;;;20.53;17.17;;;;;;;;;;5057944;28;20236;-78
2021/11/02 17:57:32;;;;;;;20.30;16.73;;;;;;;;;;5055862;28;20229;-77
2021/11/02 18:00:00;;;;;;;21.23;17.73;;;;;;;;;;5056058;28;20593;-77
2021/11/02 18:02:27;;;;;;;24.40;17.63;;;;;;;;;;5055766;28;20576;-77
2021/11/02 18:04:56;;;;;;;23.17;17.70;;;;;;;;;;5054671;28;20570;-77
2021/11/02 18:07:23;;;;;;;24.97;18.73;;;;;;;;;;5053837;28;20220;-77
2021/11/02 18:09:51;;;;;;;26.47;18.50;;;;;;;;;;5054804;28;20248;-77
2021/11/02 18:12:19;;;;;;;26.07;19.17;;;;;;;;;;5060441;28;20220;-78
2021/11/02 18:14:46;;;;;;;28.10;19.63;;;;;;;;;;5062138;28;20875;-78
2021/11/02 18:17:13;;;;;;;28.20;20.27;;;;;;;;;;5064344;28;20204;-78
2021/11/02 18:19:41;;;;;;;31.33;20.97;;;;;;;;;;5062976;28;20226;-78
2021/11/02 18:22:08;;;;;;;33.23;22.03;;;;;;;;;;5058197;28;20310;-77
2021/11/02 18:24:35;;;;;;;33.13;23.33;;;;;;;;;;5058395;28;20230;-78
2021/11/02 18:27:03;;;;;;;34.90;24.50;;;;;;;;;;5061987;28;20214;-78
2021/11/02 18:29:31;;;;;;;36.00;24.77;;;;;;;;;;5058367;28;20215;-78
2021/11/02 18:31:58;;;;;;;35.90;24.03;;;;;;;;;;5058383;28;20330;-77
2021/11/02 18:34:25;;;;;;;35.97;23.13;;;;;;;;;;5057652;28;20242;-77
2021/11/02 18:36:54;;;;;;;30.90;22.30;;;;;;;;;;5055694;28;20222;-77
2021/11/02 18:39:22;;;;;;;8.50;7.00;;;;;;;;;;5053905;28;20355;-76
2021/11/02 18:41:49;;;;;;;5.27;4.47;;;;;;;;;;5052724;28;20321;-78
2021/11/02 18:44:18;;;;;;;3.33;2.90;;;;;;;;;;5054480;28;20654;-77
2021/11/02 18:46:45;;;;;;;3.67;3.30;;;;;;;;;;5053671;28;20608;-77
2021/11/02 18:49:12;;;;;;;3.77;3.03;;;;;;;;;;5053657;28;20222;-77
2021/11/02 18:51:39;;;;;;;3.13;2.20;;;;;;;;;;5051772;28;20225;-77
2021/11/02 18:54:05;;;;;;;2.40;1.60;;;;;;;;;;5052634;28;20234;-77
2021/11/02 18:56:32;;;;;;;1.60;0.90;;;;;;;;;;5054510;28;20264;-77
2021/11/02 18:58:58;;;;;;;0.83;0.53;;;;;;;;;;5052607;28;20600;-76
2021/11/02 19:01:26;;;;;;;1.07;0.60;;;;;;;;;;5054248;28;20297;-77
2021/11/02 19:03:54;;;;;;;0.67;0.67;;;;;;;;;;5052052;28;20250;-76